Time;durP1;ratioP1;P1;durP2;ratioP2;P2;SDS_P1;SDS_P2;PMS_P1;PMS_P2;Temp;Humidity;BMP_temperature;BMP_pressure;BME280_temperature;BME280_humidity;BME280_pressure;Samples;Min_cycle;Max_cycle;Signal;HPM_P1;HPM_P2
2021/05/29 00:00:58;;;;;;;0.50;0.50;;;;;;;-144.31;100.00;75543.66;5002565;28;20049;-75
2021/05/29 00:03:26;;;;;;;0.50;0.50;;;;;;;-144.31;100.00;75543.66;5001893;28;20060;-75
2021/05/29 00:05:52;;;;;;;0.50;0.50;;;;;;;-144.31;100.00;75541.66;5005760;28;20068;-75
2021/05/29 00:08:18;;;;;;;0.50;0.50;;;;;;;-144.31;100.00;75543.66;5000540;28;20049;-74
2021/05/29 00:10:48;;;;;;;0.50;0.50;;;;;;;-144.31;100.00;75541.66;5005737;28;20076;-76
2021/05/29 00:13:14;;;;;;;0.50;0.50;;;;;;;-144.31;100.00;75545.66;5000405;28;20514;-75
2021/05/29 00:15:40;;;;;;;0.50;0.50;;;;;;;-144.31;100.00;75545.66;4998966;28;20043;-75
2021/05/29 00:18:07;;;;;;;0.50;0.50;;;;;;;-144.31;100.00;75547.63;5001549;28;20069;-76
2021/05/29 00:20:37;;;;;;;0.50;0.50;;;;;;;-144.31;100.00;75537.66;5004540;28;20041;-75
2021/05/29 00:23:03;;;;;;;0.50;0.50;;;;;;;-144.31;100.00;75553.63;5001438;28;20499;-76
2021/05/29 00:25:31;;;;;;;0.50;0.50;;;;;;;-144.31;100.00;75549.63;5002430;28;20511;-75
2021/05/29 00:27:59;;;;;;;0.50;0.50;;;;;;;-144.31;100.00;75547.63;5003114;28;20071;-75
2021/05/29 00:30:25;;;;;;;0.50;0.50;;;;;;;-144.31;100.00;75535.66;5002249;28;20415;-75
2021/05/29 00:32:51;;;;;;;0.50;0.50;;;;;;;-144.31;100.00;75531.66;5004559;28;20414;-75
2021/05/29 00:35:21;;;;;;;0.50;0.50;;;;;;;-144.31;100.00;75525.66;4979312;28;20679;-75
2021/05/29 00:37:47;;;;;;;0.47;0.47;;;;;;;-144.31;100.00;75531.66;5020289;28;20050;-75
2021/05/29 00:40:13;;;;;;;0.50;0.50;;;;;;;-144.31;100.00;75531.66;5001578;28;20092;-74
2021/05/29 00:42:39;;;;;;;0.40;0.40;;;;;;;-144.31;100.00;75533.66;5004238;28;20045;-76
2021/05/29 00:45:06;;;;;;;0.50;0.50;;;;;;;-144.31;100.00;75525.66;5002991;28;20115;-76
2021/05/29 00:47:31;;;;;;;0.50;0.50;;;;;;;-144.31;100.00;75523.69;5002241;28;20054;-76
2021/05/29 00:50:02;;;;;;;0.50;0.50;;;;;;;-144.31;100.00;75521.69;4989625;28;20093;-75
2021/05/29 00:52:27;;;;;;;0.50;0.50;;;;;;;-144.31;100.00;75523.69;4982160;28;20093;-74
2021/05/29 00:54:54;;;;;;;0.50;0.50;;;;;;;-144.31;100.00;75537.66;4994689;28;20551;-75
2021/05/29 00:57:20;;;;;;;0.50;0.50;;;;;;;-144.31;100.00;75537.66;5002310;28;20474;-76
2021/05/29 00:59:46;;;;;;;0.50;0.50;;;;;;;-144.31;100.00;75541.66;5015726;28;20038;-75
2021/05/29 01:02:16;;;;;;;0.50;0.50;;;;;;;-144.31;100.00;75545.66;5017271;28;20113;-75
2021/05/29 01:04:45;;;;;;;0.50;0.50;;;;;;;-144.31;100.00;75551.63;4996707;28;20160;-75
2021/05/29 01:07:16;;;;;;;0.50;0.50;;;;;;;-144.31;100.00;75551.63;5001073;28;20554;-76
2021/05/29 01:09:44;;;;;;;0.50;0.50;;;;;;;-144.31;100.00;75563.63;5002519;28;20053;-75
2021/05/29 01:12:10;;;;;;;;;;;;;;;-144.31;100.00;75569.63;5000829;28;20038;-76
2021/05/29 01:14:48;;;;;;;0.50;0.50;;;;;;;-144.31;100.00;75575.59;5004309;28;19932;-76
2021/05/29 01:17:14;;;;;;;0.60;0.60;;;;;;;-144.31;100.00;75581.59;5000604;28;20310;-75
2021/05/29 01:19:39;;;;;;;0.50;0.50;;;;;;;-144.31;100.00;75589.59;5027834;28;20049;-75
2021/05/29 01:22:12;;;;;;;0.50;0.50;;;;;;;-144.31;100.00;75585.59;4987020;28;20121;-75
2021/05/29 01:24:38;;;;;;;0.50;0.50;;;;;;;-144.31;100.00;75587.59;4986770;28;20046;-75
2021/05/29 01:27:05;;;;;;;0.50;0.50;;;;;;;-144.31;100.00;75593.59;5017359;28;20034;-75
2021/05/29 01:29:31;;;;;;;0.60;0.60;;;;;;;-144.31;100.00;75591.59;5007960;28;20061;-76
2021/05/29 01:32:04;;;;;;;0.50;0.50;;;;;;;-144.31;100.00;75595.56;5001569;28;20093;-76
2021/05/29 01:34:35;;;;;;;0.50;0.50;;;;;;;-144.31;100.00;75603.56;4977016;28;20587;-76
2021/05/29 01:37:03;;;;;;;0.60;0.60;;;;;;;-144.31;100.00;75603.56;5005508;28;20046;-76
2021/05/29 01:39:29;;;;;;;0.60;0.60;;;;;;;-144.31;100.00;75611.56;5021640;28;20072;-75
2021/05/29 01:41:56;;;;;;;0.50;0.50;;;;;;;-144.31;100.00;75605.56;5022340;28;20046;-76
2021/05/29 01:44:22;;;;;;;0.50;0.50;;;;;;;-144.31;100.00;75617.56;4989439;28;20051;-76
2021/05/29 01:46:49;;;;;;;0.60;0.60;;;;;;;-144.31;100.00;75619.53;4989821;28;20045;-76
2021/05/29 01:49:15;;;;;;;0.60;0.60;;;;;;;-144.31;100.00;75629.53;5004026;28;20499;-75
2021/05/29 01:51:40;;;;;;;0.50;0.50;;;;;;;-144.31;100.00;75637.53;4987864;28;20041;-76
2021/05/29 01:54:06;;;;;;;0.50;0.50;;;;;;;-144.31;100.00;75635.53;4969797;28;20431;-76
2021/05/29 01:56:38;;;;;;;0.55;0.55;;;;;;;-144.31;100.00;75647.50;4987398;28;20104;-76
2021/05/29 01:59:04;;;;;;;0.60;0.60;;;;;;;-144.31;100.00;75657.50;5005675;28;20069;-76
2021/05/29 02:01:30;;;;;;;0.50;0.50;;;;;;;-144.31;100.00;75657.50;4997511;28;20444;-76
2021/05/29 02:03:58;;;;;;;0.50;0.50;;;;;;;-144.31;100.00;75673.47;4986383;28;20166;-76
2021/05/29 02:06:25;;;;;;;0.50;0.50;;;;;;;-144.31;100.00;75685.47;5013423;28;20047;-76
2021/05/29 02:08:51;;;;;;;0.50;0.50;;;;;;;-144.31;100.00;75697.44;5006877;28;20100;-76
2021/05/29 02:11:16;;;;;;;0.60;0.60;;;;;;;-144.31;100.00;75703.44;5007972;28;20045;-76
2021/05/29 02:13:44;;;;;;;0.50;0.50;;;;;;;-144.31;100.00;75713.41;5002663;28;20045;-76
2021/05/29 02:16:10;;;;;;;;;;;;;;;-144.31;100.00;75721.41;4998794;28;20046;-75
2021/05/29 02:18:42;;;;;;;0.50;0.50;;;;;;;-144.31;100.00;75727.41;4999325;28;19924;-76
2021/05/29 02:21:11;;;;;;;0.50;0.50;;;;;;;-144.31;100.00;75737.38;5005102;28;20045;-75
2021/05/29 02:23:47;;;;;;;0.50;0.50;;;;;;;-144.31;100.00;75739.38;4994116;28;20054;-76
2021/05/29 02:26:17;;;;;;;0.50;0.50;;;;;;;-144.31;100.00;75753.38;5001911;28;20404;-75
2021/05/29 02:28:51;;;;;;;0.50;0.50;;;;;;;-144.31;100.00;75767.34;4981536;28;20405;-75
2021/05/29 02:31:18;;;;;;;0.57;0.57;;;;;;;-144.31;100.00;75781.34;5005492;28;20042;-75
2021/05/29 02:33:44;;;;;;;0.50;0.50;;;;;;;-144.31;100.00;75793.31;5005079;28;20356;-75
2021/05/29 02:36:10;;;;;;;0.60;0.60;;;;;;;-144.31;100.00;75813.28;5004399;28;20041;-75
2021/05/29 02:38:38;;;;;;;0.60;0.60;;;;;;;-144.31;100.00;75831.28;5005180;28;20057;-76
2021/05/29 02:41:06;;;;;;;0.50;0.50;;;;;;;-144.31;100.00;75845.25;5003434;28;20483;-75
2021/05/29 02:43:36;;;;;;;0.60;0.60;;;;;;;-144.31;100.00;75859.22;5005611;28;20101;-75
2021/05/29 02:46:02;;;;;;;0.52;0.52;;;;;;;-144.31;100.00;75867.22;4986890;28;20050;-76
2021/05/29 02:48:30;;;;;;;0.60;0.60;;;;;;;-144.31;100.00;75885.19;5003520;28;20053;-76
2021/05/29 02:50:56;;;;;;;0.60;0.60;;;;;;;-144.31;100.00;75893.19;4992806;28;20050;-75
2021/05/29 02:53:21;;;;;;;0.60;0.60;;;;;;;-144.31;100.00;75903.19;4987062;28;20046;-76
2021/05/29 02:55:47;;;;;;;0.60;0.60;;;;;;;-144.31;100.00;75897.19;4996155;28;20617;-75
2021/05/29 02:58:15;;;;;;;0.60;0.60;;;;;;;-144.31;100.00;75905.19;5005481;28;20096;-75
2021/05/29 03:00:46;;;;;;;0.60;0.60;;;;;;;-144.31;100.00;75923.16;5000664;28;20137;-76
2021/05/29 03:03:15;;;;;;;0.70;0.70;;;;;;;-144.31;100.00;75915.16;5004554;28;20558;-75
2021/05/29 03:05:43;;;;;;;0.60;0.60;;;;;;;-144.31;100.00;75923.16;5020505;28;20079;-76
2021/05/29 03:08:11;;;;;;;0.60;0.60;;;;;;;-144.31;100.00;75923.16;5003920;28;20534;-76
2021/05/29 03:10:36;;;;;;;;;;;;;;;-144.31;100.00;75927.16;5002667;28;20128;-76
2021/05/29 03:13:02;;;;;;;0.60;0.60;;;;;;;-144.31;100.00;75929.16;5006190;28;20044;-75
2021/05/29 03:15:28;;;;;;;0.60;0.60;;;;;;;-144.31;100.00;75931.16;4987794;28;20065;-75
2021/05/29 03:17:55;;;;;;;0.60;0.60;;;;;;;-144.31;100.00;75929.16;5005258;28;20085;-75
2021/05/29 03:20:24;;;;;;;0.60;0.60;;;;;;;-144.31;100.00;75925.16;5013663;28;20544;-75
2021/05/29 03:22:52;;;;;;;0.60;0.60;;;;;;;-144.31;100.00;75927.16;5006982;28;20052;-75
2021/05/29 03:25:18;;;;;;;0.60;0.60;;;;;;;-144.31;100.00;75913.16;4989765;28;20082;-75
2021/05/29 03:27:51;;;;;;;0.60;0.60;;;;;;;-144.31;100.00;75931.16;4980651;28;20034;-76
2021/05/29 03:30:19;;;;;;;0.60;0.60;;;;;;;-144.31;100.00;75941.13;5003239;28;20042;-76
2021/05/29 03:32:47;;;;;;;0.65;0.65;;;;;;;-144.31;100.00;75949.13;5004284;28;20053;-76
2021/05/29 03:35:14;;;;;;;0.70;0.70;;;;;;;-144.31;100.00;75949.13;5020695;28;20050;-75
2021/05/29 03:37:40;;;;;;;0.70;0.70;;;;;;;-144.31;100.00;75953.13;5004163;28;20044;-76
2021/05/29 03:40:08;;;;;;;0.60;0.60;;;;;;;-144.31;100.00;75971.09;5004698;28;20119;-76
2021/05/29 03:42:33;;;;;;;0.70;0.70;;;;;;;-144.31;100.00;75975.09;4993726;28;20137;-76
2021/05/29 03:45:02;;;;;;;0.70;0.70;;;;;;;-144.31;100.00;75985.06;4985060;28;20145;-76
2021/05/29 03:47:27;;;;;;;0.70;0.70;;;;;;;-144.31;100.00;75993.06;4993836;28;20208;-76
2021/05/29 03:49:53;;;;;;;0.70;0.70;;;;;;;-144.31;100.00;76005.06;5005278;28;20066;-75
2021/05/29 03:52:19;;;;;;;0.70;0.70;;;;;;;-144.31;100.00;76007.03;4985524;28;20415;-76
2021/05/29 03:54:44;;;;;;;0.70;0.70;;;;;;;-144.31;100.00;76015.03;4999967;28;20038;-76
2021/05/29 03:57:10;;;;;;;0.70;0.70;;;;;;;-144.31;100.00;76013.03;4983419;28;20532;-76
2021/05/29 03:59:35;;;;;;;0.60;0.60;;;;;;;-144.31;100.00;76025.03;4993565;28;20049;-76
2021/05/29 04:02:01;;;;;;;0.70;0.70;;;;;;;-144.31;100.00;76021.03;5003546;28;20046;-76
2021/05/29 04:04:27;;;;;;;0.70;0.70;;;;;;;-144.31;100.00;75999.06;5005178;28;20057;-75
2021/05/29 04:06:54;;;;;;;0.70;0.70;;;;;;;-144.31;100.00;75999.06;4998466;28;20042;-76
2021/05/29 04:09:20;;;;;;;0.70;0.70;;;;;;;-144.31;100.00;75999.06;5004395;28;20052;-76
2021/05/29 04:11:45;;;;;;;0.70;0.70;;;;;;;-144.31;100.00;75991.06;5001561;28;20077;-76
2021/05/29 04:14:11;;;;;;;0.70;0.70;;;;;;;-144.31;100.00;75989.06;4983386;28;20253;-76
2021/05/29 04:16:39;;;;;;;0.70;0.70;;;;;;;-144.31;100.00;75983.06;4979098;28;20037;-76
2021/05/29 04:19:04;;;;;;;0.70;0.70;;;;;;;-144.31;100.00;75975.09;5005725;28;20048;-76
2021/05/29 04:21:30;;;;;;;0.70;0.70;;;;;;;-144.31;100.00;75963.09;5003845;28;20050;-76
2021/05/29 04:23:57;;;;;;;0.70;0.70;;;;;;;-144.31;100.00;75957.13;4984430;28;20128;-75
2021/05/29 04:26:23;;;;;;;0.65;0.65;;;;;;;-144.31;100.00;75941.13;4982999;28;20056;-75
2021/05/29 04:28:50;;;;;;;0.70;0.70;;;;;;;-144.31;100.00;75941.13;5003687;28;20042;-76
2021/05/29 04:31:16;;;;;;;0.70;0.70;;;;;;;-144.31;100.00;75927.16;5017453;28;20435;-76
2021/05/29 04:33:42;;;;;;;0.70;0.70;;;;;;;-144.31;100.00;75897.19;5005061;28;20045;-75
2021/05/29 04:36:07;;;;;;;0.70;0.70;;;;;;;-144.31;100.00;75895.19;5001665;28;20064;-76
2021/05/29 04:38:33;;;;;;;0.70;0.70;;;;;;;-144.31;100.00;75889.19;5003526;28;20294;-76
2021/05/29 04:41:00;;;;;;;;;;;;;;;-144.31;100.00;75853.25;5019711;28;20050;-75
2021/05/29 04:43:26;;;;;;;0.70;0.70;;;;;;;-144.31;100.00;75843.25;4998160;28;20092;-75
2021/05/29 04:45:51;;;;;;;0.70;0.70;;;;;;;-144.31;100.00;75837.25;5001078;28;20050;-76
2021/05/29 04:48:19;;;;;;;0.70;0.70;;;;;;;-144.31;100.00;75821.28;4990855;28;20276;-76
2021/05/29 04:53:29;;;;;;;0.70;0.70;;;;;;;-144.31;100.00;75807.31;5004415;28;20621;-76
2021/05/29 04:55:55;;;;;;;0.70;0.70;;;;;;;-144.31;100.00;75793.31;5010422;28;20072;-76
2021/05/29 04:58:20;;;;;;;0.70;0.70;;;;;;;-144.31;100.00;75769.34;4999600;28;20124;-76
2021/05/29 05:00:47;;;;;;;0.60;0.60;;;;;;;-144.31;100.00;75761.34;4985908;28;20054;-76
2021/05/29 05:03:14;;;;;;;0.70;0.70;;;;;;;-144.31;100.00;75739.38;4990007;28;20042;-76
2021/05/29 05:05:40;;;;;;;0.70;0.70;;;;;;;-144.31;100.00;75723.41;5002056;28;20045;-76
2021/05/29 05:08:06;;;;;;;0.60;0.60;;;;;;;-144.31;100.00;75711.44;5004376;28;20037;-76
2021/05/29 05:10:34;;;;;;;0.60;0.60;;;;;;;-144.31;100.00;75703.44;5004552;28;20078;-75
2021/05/29 05:13:04;;;;;;;0.60;0.60;;;;;;;-144.31;100.00;75683.47;5005484;28;20523;-75
2021/05/29 05:15:31;;;;;;;0.60;0.60;;;;;;;-144.31;100.00;75653.50;5004639;28;20050;-75
2021/05/29 05:17:57;;;;;;;0.60;0.60;;;;;;;-144.31;100.00;75641.53;5007565;28;20065;-75
2021/05/29 05:20:25;;;;;;;0.60;0.60;;;;;;;-144.31;100.00;75619.53;4989211;28;20052;-75
2021/05/29 05:22:51;;;;;;;0.55;0.55;;;;;;;-144.31;100.00;75587.59;5008199;28;20049;-75
2021/05/29 05:25:16;;;;;;;0.60;0.60;;;;;;;-144.31;100.00;75567.63;4993017;28;20089;-75
2021/05/29 05:27:42;;;;;;;0.60;0.60;;;;;;;-144.31;100.00;75549.63;4995413;28;20081;-75
2021/05/29 05:30:13;;;;;;;0.60;0.60;;;;;;;-144.31;100.00;75535.66;5008040;28;20392;-75
2021/05/29 05:32:40;;;;;;;0.60;0.60;;;;;;;-144.31;100.00;75521.69;5014358;28;20049;-75
2021/05/29 05:35:13;;;;;;;0.57;0.57;;;;;;;-144.31;100.00;75501.69;5010629;28;20049;-75
2021/05/29 05:37:39;;;;;;;0.50;0.50;;;;;;;-144.31;100.00;75469.75;4977863;28;20042;-77
2021/05/29 05:40:06;;;;;;;0.50;0.50;;;;;;;-144.31;100.00;75451.78;4987743;28;20503;-76
2021/05/29 05:42:32;;;;;;;0.40;0.40;;;;;;;-144.31;100.00;75429.81;4998492;28;20070;-75
2021/05/29 05:44:58;;;;;;;0.50;0.50;;;;;;;-144.31;100.00;75413.81;5001745;28;20169;-76
2021/05/29 05:47:23;;;;;;;0.50;0.50;;;;;;;-144.31;100.00;75393.84;5005083;28;20052;-75
2021/05/29 05:49:49;;;;;;;0.40;0.40;;;;;;;-144.31;100.00;75363.91;5007655;28;20057;-75
2021/05/29 05:52:14;;;;;;;0.50;0.50;;;;;;;-144.31;100.00;75321.94;5006479;28;20044;-75
2021/05/29 05:54:40;;;;;;;0.50;0.50;;;;;;;-144.31;100.00;75298.00;5001918;28;20044;-75
2021/05/29 05:57:06;;;;;;;0.50;0.50;;;;;;;-144.31;100.00;75266.03;4999430;28;20117;-75
2021/05/29 05:59:34;;;;;;;0.40;0.40;;;;;;;-144.31;100.00;75238.06;5006732;28;20046;-75
2021/05/29 06:01:59;;;;;;;0.50;0.50;;;;;;;-144.31;100.00;75212.09;4986400;28;20077;-75
2021/05/29 06:04:25;;;;;;;0.47;0.47;;;;;;;-144.31;100.00;75190.13;4987231;28;20046;-75
2021/05/29 06:06:50;;;;;;;0.50;0.50;;;;;;;-144.31;100.00;75162.19;5002528;28;20073;-75
2021/05/29 06:09:16;;;;;;;0.50;0.50;;;;;;;-144.31;100.00;75132.22;5006313;28;20372;-75
2021/05/29 06:11:43;;;;;;;0.40;0.40;;;;;;;-144.31;100.00;75110.25;5005971;28;20128;-76
2021/05/29 06:19:24;;;;;;;0.40;0.40;;;;;;;-144.31;100.00;75026.38;5012619;28;20742;-75
2021/05/29 06:21:52;;;;;;;0.40;0.40;;;;;;;-144.31;100.00;75002.41;4988339;28;20046;-76
2021/05/29 06:24:27;;;;;;;0.40;0.40;;;;;;;-144.31;100.00;74984.44;4985140;28;20056;-76
2021/05/29 06:26:54;;;;;;;0.40;0.40;;;;;;;-144.31;100.00;74960.47;4988204;28;20069;-75
2021/05/29 06:29:20;;;;;;;0.40;0.40;;;;;;;-144.31;100.00;74938.50;4997090;28;20045;-75
2021/05/29 06:31:47;;;;;;;0.32;0.32;;;;;;;-144.31;100.00;74924.53;4996737;28;20038;-76
2021/05/29 06:34:13;;;;;;;0.30;0.30;;;;;;;-144.31;100.00;74904.56;5001697;28;20133;-75
2021/05/29 06:36:39;;;;;;;0.40;0.40;;;;;;;-144.31;100.00;74884.59;4990857;28;20046;-76
2021/05/29 06:39:06;;;;;;;0.32;0.32;;;;;;;-144.31;100.00;74886.59;5005584;28;20448;-75
2021/05/29 06:41:32;;;;;;;0.30;0.30;;;;;;;-144.31;100.00;74880.59;4988839;28;20128;-76
2021/05/29 06:43:58;;;;;;;0.30;0.30;;;;;;;-144.31;100.00;74846.66;5006222;28;20064;-76
2021/05/29 06:46:23;;;;;;;0.30;0.30;;;;;;;-144.31;100.00;74818.69;5006089;28;20496;-76
2021/05/29 06:48:49;;;;;;;0.30;0.30;;;;;;;-144.31;100.00;74820.69;5029183;28;20030;-75
2021/05/29 06:51:21;;;;;;;0.30;0.30;;;;;;;-144.31;100.00;74804.72;5003668;28;20049;-75
2021/05/29 06:53:49;;;;;;;0.30;0.30;;;;;;;-144.31;100.00;74798.72;5000589;28;20049;-76
2021/05/29 06:59:02;;;;;;;0.30;0.30;;;;;;;-144.31;100.00;74758.78;4986187;28;20053;-76
2021/05/29 07:01:30;;;;;;;0.30;0.30;;;;;;;-144.31;100.00;74720.84;5004750;28;20042;-76
2021/05/29 07:03:56;;;;;;;0.30;0.30;;;;;;;-144.31;100.00;74710.84;5020979;28;20080;-76
2021/05/29 07:06:22;;;;;;;0.30;0.30;;;;;;;-144.31;100.00;74718.84;5003647;28;20574;-76
2021/05/29 07:08:51;;;;;;;0.30;0.30;;;;;;;-144.31;100.00;74726.84;5006382;28;20064;-76
2021/05/29 07:11:19;;;;;;;0.30;0.30;;;;;;;-144.31;100.00;74720.84;5019785;28;20042;-76
2021/05/29 07:13:47;;;;;;;0.30;0.30;;;;;;;-144.31;100.00;74654.94;5002703;28;20151;-76
2021/05/29 07:16:13;;;;;;;0.30;0.30;;;;;;;-144.31;100.00;74678.91;4990564;28;20108;-76
2021/05/29 07:18:45;;;;;;;0.30;0.30;;;;;;;-144.31;100.00;74644.97;5005176;28;20337;-75
2021/05/29 07:21:15;;;;;;;0.30;0.30;;;;;;;-144.31;100.00;74670.91;5003382;28;20049;-75
2021/05/29 07:23:44;;;;;;;0.30;0.30;;;;;;;-144.31;100.00;74642.97;5004419;28;20498;-75
2021/05/29 07:26:11;;;;;;;0.30;0.30;;;;;;;-144.31;100.00;74627.00;5000314;28;20488;-74
2021/05/29 07:28:36;;;;;;;0.30;0.30;;;;;;;-144.31;100.00;74619.00;4986291;28;20042;-75
2021/05/29 07:31:02;;;;;;;0.30;0.30;;;;;;;-144.31;100.00;74573.06;4998022;28;20525;-76
2021/05/29 07:33:27;;;;;;;0.30;0.30;;;;;;;-144.31;100.00;74571.06;5003259;28;20485;-75
2021/05/29 07:35:54;;;;;;;0.20;0.20;;;;;;;-144.31;100.00;74557.09;5019188;28;20049;-75
2021/05/29 07:38:21;;;;;;;0.30;0.30;;;;;;;-144.31;100.00;74541.13;5020949;28;20425;-75
2021/05/29 07:40:51;;;;;;;0.32;0.32;;;;;;;-144.31;100.00;74559.09;4993592;28;20558;-76
2021/05/29 07:43:19;;;;;;;0.30;0.30;;;;;;;-144.31;100.00;74521.16;4986571;28;20053;-76
2021/05/29 07:45:46;;;;;;;0.30;0.30;;;;;;;-144.31;100.00;74551.09;5024051;28;20105;-75
2021/05/29 07:48:12;;;;;;;0.20;0.20;;;;;;;-144.31;100.00;74485.22;5003342;28;20033;-76
2021/05/29 07:50:57;;;;;;;0.20;0.20;;;;;;;-144.31;100.00;74503.19;4996832;28;20389;-75
2021/05/29 07:53:23;;;;;;;0.28;0.28;;;;;;;-144.31;100.00;74475.22;5001215;28;20053;-75
2021/05/29 07:55:49;;;;;;;0.30;0.30;;;;;;;-144.31;100.00;74451.28;4992256;28;20118;-75
2021/05/29 07:58:14;;;;;;;0.20;0.20;;;;;;;-144.31;100.00;74481.22;4992462;28;20796;-75
2021/05/29 08:00:43;;;;;;;0.30;0.30;;;;;;;-144.31;100.00;74481.22;5001164;28;20159;-75
2021/05/29 08:03:11;;;;;;;0.28;0.28;;;;;;;-144.31;100.00;74467.25;4983158;28;20042;-75
2021/05/29 08:05:37;;;;;;;0.20;0.20;;;;;;;-144.31;100.00;74459.25;4982620;28;20054;-76
2021/05/29 08:08:06;;;;;;;0.25;0.25;;;;;;;-144.31;100.00;74419.31;4983284;28;20088;-77
2021/05/29 08:10:31;;;;;;;0.30;0.30;;;;;;;-144.31;100.00;74387.38;4983888;28;20134;-76
2021/05/29 08:12:57;;;;;;;0.20;0.20;;;;;;;-144.31;100.00;74417.31;4984387;28;20090;-76
2021/05/29 08:15:27;;;;;;;0.20;0.20;;;;;;;-144.31;100.00;74423.31;4991860;28;20602;-76
2021/05/29 08:17:52;;;;;;;0.20;0.20;;;;;;;-144.31;100.00;74463.25;5002665;28;20053;-76
2021/05/29 08:20:17;;;;;;;0.20;0.20;;;;;;;-144.31;100.00;74351.44;5002908;28;20275;-76
2021/05/29 08:22:43;;;;;;;0.20;0.20;;;;;;;-144.31;100.00;74303.50;4988991;28;20044;-76
2021/05/29 08:25:09;;;;;;;0.20;0.20;;;;;;;-144.31;100.00;74355.44;4993763;28;20054;-75
2021/05/29 08:27:34;;;;;;;0.30;0.30;;;;;;;-144.31;100.00;74373.41;5000336;28;20038;-75
2021/05/29 08:30:02;;;;;;;0.20;0.20;;;;;;;-144.31;100.00;74451.28;5003131;28;20136;-76
2021/05/29 08:32:27;;;;;;;0.20;0.20;;;;;;;-144.31;100.00;74333.47;4996424;28;20046;-75
2021/05/29 08:34:57;;;;;;;0.20;0.20;;;;;;;-144.31;100.00;74281.56;5003231;28;20544;-76
2021/05/29 08:37:23;;;;;;;0.20;0.20;;;;;;;-144.31;100.00;74261.59;4997783;28;20054;-76
2021/05/29 08:39:49;;;;;;;0.28;0.28;;;;;;;-144.31;100.00;74335.47;5006628;28;20084;-77
2021/05/29 08:42:15;;;;;;;0.20;0.20;;;;;;;-144.31;100.00;74251.59;4987895;28;20071;-76
2021/05/29 08:44:43;;;;;;;0.30;0.30;;;;;;;-144.31;100.00;74259.59;5016090;28;20050;-76
2021/05/29 08:47:09;;;;;;;0.20;0.20;;;;;;;-144.31;100.00;74315.50;4985911;28;20070;-76
2021/05/29 08:49:35;;;;;;;0.20;0.20;;;;;;;-144.31;100.00;74299.53;5001782;28;20096;-76
2021/05/29 08:52:03;;;;;;;0.20;0.20;;;;;;;-144.31;100.00;74241.63;5010206;28;20046;-76
2021/05/29 08:54:31;;;;;;;0.20;0.20;;;;;;;-144.31;100.00;74201.69;5023646;28;20349;-76
2021/05/29 08:56:59;;;;;;;0.20;0.20;;;;;;;-144.31;100.00;74347.44;5008492;28;20053;-76
2021/05/29 08:59:24;;;;;;;0.20;0.20;;;;;;;-144.31;100.00;74411.34;5006763;28;20160;-76
2021/05/29 09:01:53;;;;;;;0.20;0.20;;;;;;;-144.31;100.00;74369.41;4999372;28;20050;-76
2021/05/29 09:04:18;;;;;;;0.20;0.20;;;;;;;-144.31;100.00;74217.66;5006827;28;20046;-76
2021/05/29 09:06:45;;;;;;;0.30;0.30;;;;;;;-144.31;100.00;74139.78;5001719;28;20369;-76
2021/05/29 09:09:14;;;;;;;;;;;;;;;-144.31;100.00;74237.63;5005242;28;20046;-76
2021/05/29 09:11:50;;;;;;;0.20;0.20;;;;;;;-144.31;100.00;74277.56;5024133;28;20369;-76
2021/05/29 09:14:27;;;;;;;0.20;0.20;;;;;;;-144.31;100.00;74289.53;5004400;28;20034;-76
2021/05/29 09:17:02;;;;;;;0.30;0.30;;;;;;;-144.31;100.00;74323.47;5001114;28;20156;-76
2021/05/29 09:19:28;;;;;;;0.20;0.20;;;;;;;-144.31;100.00;74287.53;5002307;28;20045;-76
2021/05/29 09:21:53;;;;;;;0.20;0.20;;;;;;;-144.31;100.00;74109.84;5002515;28;20041;-76
2021/05/29 09:24:21;;;;;;;0.20;0.20;;;;;;;-144.31;100.00;74099.84;5000375;28;20181;-76
2021/05/29 09:26:52;;;;;;;0.20;0.20;;;;;;;-144.31;100.00;74012.00;4972497;28;20444;-76
2021/05/29 09:29:30;;;;;;;0.20;0.20;;;;;;;-144.31;100.00;74008.00;4993140;28;20038;-76
2021/05/29 09:32:00;;;;;;;0.20;0.20;;;;;;;-144.31;100.00;73934.16;5001269;28;20037;-77
2021/05/29 09:35:04;;;;;;;0.20;0.20;;;;;;;-144.31;100.00;73988.06;5015298;28;20038;-77
2021/05/29 09:37:28;;;;;;;0.20;0.20;;;;;;;-144.31;100.00;73996.03;4987940;28;20046;-76
2021/05/29 09:39:59;;;;;;;0.20;0.20;;;;;;;-144.31;100.00;73932.16;4978298;28;20038;-76
2021/05/29 09:42:37;;;;;;;0.20;0.20;;;;;;;-144.31;100.00;73876.25;4993649;28;20045;-76
2021/05/29 09:45:26;;;;;;;0.20;0.20;;;;;;;-144.31;100.00;74095.88;5012522;28;20045;-79
2021/05/29 09:48:13;;;;;;;0.20;0.20;;;;;;;-144.31;100.00;74207.69;5018843;28;20070;-78
2021/05/29 09:51:11;;;;;;;0.17;0.17;;;;;;;-144.31;100.00;74211.66;4995757;28;20092;-71
2021/05/29 09:53:51;;;;;;;0.13;0.13;;;;;;;-144.31;100.00;74439.28;5006613;28;20484;-72
2021/05/29 09:56:31;;;;;;;0.15;0.15;;;;;;;-144.31;100.00;74499.19;5006645;28;20049;-71
2021/05/29 09:59:02;;;;;;;0.15;0.15;;;;;;;-144.31;100.00;74489.22;5009851;28;20052;-74
2021/05/29 10:01:40;;;;;;;0.20;0.20;;;;;;;-144.31;100.00;74481.22;5009119;28;20120;-75
2021/05/29 10:04:06;;;;;;;0.20;0.20;;;;;;;-144.31;100.00;74567.09;5010248;28;20084;-76
2021/05/29 10:06:33;;;;;;;0.20;0.20;;;;;;;-144.31;100.00;74461.25;4994688;28;20138;-76
2021/05/29 10:08:59;;;;;;;0.20;0.20;;;;;;;-144.31;100.00;74225.66;4981310;28;20068;-75
2021/05/29 10:11:28;;;;;;;0.20;0.20;;;;;;;-144.31;100.00;74167.75;5011232;28;20049;-76
2021/05/29 10:13:53;;;;;;;0.20;0.20;;;;;;;-144.31;100.00;74081.88;5010986;28;20120;-76
2021/05/29 10:16:20;;;;;;;0.20;0.20;;;;;;;-144.31;83.19;74105.84;5009492;28;20034;-75
2021/05/29 10:18:49;;;;;;;0.20;0.20;;;;;;;-144.31;81.92;74097.84;5000803;28;20042;-76
2021/05/29 10:21:16;;;;;;;0.20;0.20;;;;;;;-144.31;77.86;74029.97;4989480;28;20043;-75
2021/05/29 10:23:45;;;;;;;0.20;0.20;;;;;;;-144.31;72.91;74065.91;4995276;28;20049;-76
2021/05/29 10:26:17;;;;;;;0.20;0.20;;;;;;;-144.31;80.43;74273.56;5004886;28;20045;-75
2021/05/29 10:28:45;;;;;;;0.20;0.20;;;;;;;-144.31;78.59;74207.69;5008782;28;20423;-76
2021/05/29 10:31:10;;;;;;;0.20;0.20;;;;;;;-144.31;72.46;74077.91;5026107;28;20135;-76
2021/05/29 10:33:41;;;;;;;0.20;0.20;;;;;;;-144.31;68.94;73940.13;5026337;28;20080;-75
2021/05/29 10:36:07;;;;;;;0.20;0.20;;;;;;;-144.31;66.67;73872.25;4995479;28;20170;-76
2021/05/29 10:38:44;;;;;;;0.20;0.20;;;;;;;-144.31;61.30;74113.84;5008960;28;20160;-76
2021/05/29 10:41:10;;;;;;;0.20;0.20;;;;;;;-144.31;63.49;73842.31;5025516;28;20089;-76
2021/05/29 10:43:36;;;;;;;0.10;0.10;;;;;;;-144.31;58.09;74051.94;5008628;28;20482;-75
2021/05/29 10:46:09;;;;;;;0.20;0.20;;;;;;;-144.31;64.23;74022.00;4992405;28;20144;-75
2021/05/29 10:48:49;;;;;;;0.20;0.20;;;;;;;-144.31;61.15;74047.94;4991283;28;20278;-75
2021/05/29 10:51:15;;;;;;;0.20;0.20;;;;;;;-144.31;63.18;73938.13;5007713;28;20518;-76
2021/05/29 10:53:57;;;;;;;0.17;0.17;;;;;;;-144.31;62.13;73950.13;5008425;28;20396;-76
2021/05/29 10:56:24;;;;;;;0.20;0.20;;;;;;;-144.31;65.26;74213.66;5009736;28;20072;-76
2021/05/29 10:59:18;;;;;;;0.20;0.20;;;;;;;-144.31;67.11;74231.63;5009709;28;20045;-75
2021/05/29 11:01:48;;;;;;;0.20;0.20;;;;;;;-144.31;64.84;74099.84;5009674;28;20111;-76
2021/05/29 11:04:25;;;;;;;0.20;0.20;;;;;;;-144.31;56.04;73888.22;5003290;28;20194;-76
2021/05/29 11:07:21;;;;;;;0.20;0.20;;;;;;;-144.31;57.50;73868.25;5001333;28;20042;-76
2021/05/29 11:09:59;;;;;;;0.20;0.20;;;;;;;-144.31;55.21;73724.50;4996762;28;20042;-76
2021/05/29 11:12:47;;;;;;;0.20;0.20;;;;;;;-144.31;56.93;74095.88;5010497;28;20052;-76
2021/05/29 11:15:13;;;;;;;0.10;0.10;;;;;;;-144.31;61.80;74159.75;5025587;28;20145;-76
2021/05/29 11:17:38;;;;;;;0.10;0.10;;;;;;;-144.31;60.24;74271.56;5016043;28;20137;-75
2021/05/29 11:20:22;;;;;;;0.20;0.20;;;;;;;-144.31;66.53;74347.44;4989853;28;20046;-76
2021/05/29 11:22:49;;;;;;;0.20;0.20;;;;;;;-144.31;63.10;74243.63;4972866;28;20076;-76
2021/05/29 11:25:18;;;;;;;0.20;0.20;;;;;;;-144.31;61.81;74299.53;5009937;28;20065;-76
2021/05/29 11:27:45;;;;;;;0.20;0.20;;;;;;;-144.31;63.66;74263.56;4993613;28;20173;-76